Dauntless — AEGD — position and weather

sailwx.info

Track history (hours):
 
Tides and Currents Weather Stations Pressure Air Temp Water Temp Dewpoint Dewpoint Depression Visibility Wind Speed Wind Dir Waves Ship Positions

Dauntless

Last reported at 2018-May-16 18:37 UTC. Time now 2018-May-21 14:59 UTC.
Position N 39°32' W 075°49'.

Length 10 m.

Type: Dredging. MMSI: 366999309.

Date/timePositionNaut miles runAvg speedWind from/ knotsBaromVisibWave heightAir tempDewpointWater temp
2018-May-16 18:37N 39°32' W 075°49'0 3.4
2018-May-16 18:30N 39°32' W 075°48'1326.2
2018-May-16 18:00N 39°34' W 075°31'1 1.9
2018-May-16 17:30N 39°34' W 075°30'0 0.1
2018-May-16 17:00N 39°34' W 075°30'1 1.8
2018-May-16 16:30N 39°34' W 075°31'0 0.6
2018-May-16 16:00N 39°34' W 075°31'1 2.3
2018-May-16 15:30N 39°33' W 075°32'0 0.8
2018-May-16 15:00N 39°34' W 075°31'1 1.8
2018-May-16 14:30N 39°33' W 075°32'0 0.9
2018-May-16 14:00N 39°33' W 075°32'3 5.4
2018-May-16 13:30N 39°33' W 075°35'10 0.5
2018-May-15 17:37N 39°32' W 075°49'0 1.5
2018-May-15 17:25N 39°32' W 075°49'716.7
2018-May-15 17:00N 39°33' W 075°40'1122.2
2018-May-15 16:30N 39°42' W 075°31'1326.0
2018-May-15 16:00N 39°51' W 075°20'6 6.8
2018-May-15 15:10N 39°53' W 075°13'0 0.0
2018-May-15 14:58N 39°53' W 075°13'0 0.0
2018-May-15 14:28N 39°53' W 075°13'0 0.0
2018-May-15 13:58N 39°53' W 075°13'0 0.0
2018-May-15 13:30N 39°53' W 075°13'4 7.9
2018-May-15 12:59N 39°54' W 075°08'  
2018-May-08 17:30N 40°04' W 074°54'0 0.0
2018-May-07 15:06N 40°04' W 074°54'  
Track history (hours):
 
Tides and Currents Weather Stations Pressure Air Temp Water Temp Dewpoint Dewpoint Depression Visibility Wind Speed Wind Dir Waves Ship Positions

Dauntless

Last reported at 2018-May-16 18:37 UTC. Time now 2018-May-21 14:59 UTC.
Position N 39°32' W 075°49'.

Length 10 m.

Type: Dredging. MMSI: 366999309.

Date/timePositionNaut miles runAvg speedWind from/ knotsBaromVisibWave heightAir tempDewpointWater temp
2018-May-16 18:37N 39°32' W 075°49'0 3.4
2018-May-16 18:30N 39°32' W 075°48'1326.2
2018-May-16 18:00N 39°34' W 075°31'1 1.9
2018-May-16 17:30N 39°34' W 075°30'0 0.1
2018-May-16 17:00N 39°34' W 075°30'1 1.8
2018-May-16 16:30N 39°34' W 075°31'0 0.6
2018-May-16 16:00N 39°34' W 075°31'1 2.3
2018-May-16 15:30N 39°33' W 075°32'0 0.8
2018-May-16 15:00N 39°34' W 075°31'1 1.8
2018-May-16 14:30N 39°33' W 075°32'0 0.9
2018-May-16 14:00N 39°33' W 075°32'3 5.4
2018-May-16 13:30N 39°33' W 075°35'10 0.5
2018-May-15 17:37N 39°32' W 075°49'0 1.5
2018-May-15 17:25N 39°32' W 075°49'716.7
2018-May-15 17:00N 39°33' W 075°40'1122.2
2018-May-15 16:30N 39°42' W 075°31'1326.0
2018-May-15 16:00N 39°51' W 075°20'6 6.8
2018-May-15 15:10N 39°53' W 075°13'0 0.0
2018-May-15 14:58N 39°53' W 075°13'0 0.0
2018-May-15 14:28N 39°53' W 075°13'0 0.0
2018-May-15 13:58N 39°53' W 075°13'0 0.0
2018-May-15 13:30N 39°53' W 075°13'4 7.9
2018-May-15 12:59N 39°54' W 075°08'  
2018-May-08 17:30N 40°04' W 074°54'0 0.0
2018-May-07 15:06N 40°04' W 074°54'  

Dump ship's entire track history